Time;durP1;ratioP1;P1;durP2;ratioP2;P2;SDS_P1;SDS_P2;PMS_P1;PMS_P2;Temp;Humidity;BMP_temperature;BMP_pressure;BME280_temperature;BME280_humidity;BME280_pressure;Samples;Min_cycle;Max_cycle;Signal;HPM_P1;HPM_P2
2023/07/29 00:00:46;;;;;;;1.45;1.35;;;16.40;99.90;;;16.17;100.00;96848.69;5001536;28;20079;-38
2023/07/29 00:03:12;;;;;;;1.50;1.17;;;16.40;99.90;;;16.19;100.00;96852.09;5001932;28;20555;-38
2023/07/29 00:05:38;;;;;;;3.88;1.10;;;16.50;99.90;;;16.22;100.00;96845.69;5002453;28;20037;-38
2023/07/29 00:08:05;;;;;;;1.55;1.10;;;16.50;99.90;;;16.18;100.00;96833.56;4999898;28;20041;-38
2023/07/29 00:10:37;;;;;;;2.25;1.20;;;16.50;99.90;;;16.19;100.00;96827.31;5004724;28;20044;-39
2023/07/29 00:13:04;;;;;;;1.73;1.25;;;16.50;99.90;;;16.28;100.00;96839.97;5003874;28;20112;-39
2023/07/29 00:15:29;;;;;;;1.20;1.10;;;16.50;99.90;;;16.29;100.00;96824.84;5005299;28;20041;-38
2023/07/29 00:17:55;;;;;;;3.15;1.23;;;16.50;99.90;;;16.31;100.00;96822.94;5001960;28;20060;-39
2023/07/29 00:20:21;;;;;;;2.33;1.20;;;16.60;99.90;;;16.32;100.00;96836.13;5001333;28;20042;-39
2023/07/29 00:22:49;;;;;;;1.92;1.52;;;16.60;99.90;;;16.34;100.00;96825.38;5007562;28;20116;-39
2023/07/29 00:25:15;;;;;;;4.57;1.45;;;16.60;99.90;;;16.36;100.00;96826.97;5001128;28;20072;-38
2023/07/29 00:27:42;;;;;;;2.53;1.50;;;16.60;99.90;;;16.37;100.00;96827.84;5001136;28;20025;-38
2023/07/29 00:30:08;;;;;;;1.52;1.25;;;16.60;99.90;;;16.38;100.00;96829.53;4995256;28;20022;-39
2023/07/29 00:32:35;;;;;;;1.33;1.10;;;16.60;99.90;;;16.39;100.00;96836.56;5007940;28;20500;-39
2023/07/29 00:35:01;;;;;;;1.10;1.00;;;16.60;99.90;;;16.39;100.00;96840.06;5003422;28;20172;-39
2023/07/29 00:37:28;;;;;;;1.70;1.20;;;16.60;99.90;;;16.41;100.00;96835.50;5011429;28;20033;-38
2023/07/29 00:39:54;;;;;;;1.73;1.35;;;16.70;99.90;;;16.45;100.00;96824.63;5000687;28;20030;-38
2023/07/29 00:42:20;;;;;;;1.80;1.35;;;16.70;99.90;;;16.46;100.00;96827.19;5006821;28;20032;-39
2023/07/29 00:44:45;;;;;;;2.33;1.10;;;16.70;99.90;;;16.44;100.00;96817.59;5002223;28;20465;-38
2023/07/29 00:47:12;;;;;;;1.55;1.10;;;16.70;99.90;;;16.40;100.00;96808.97;5002045;28;20116;-38
2023/07/29 00:49:38;;;;;;;1.75;1.25;;;16.70;99.90;;;16.47;100.00;96817.41;5010917;28;20179;-39
2023/07/29 00:52:04;;;;;;;2.30;1.40;;;16.70;99.90;;;16.45;100.00;96821.97;5002175;28;20092;-38
2023/07/29 00:54:30;;;;;;;3.35;1.25;;;16.70;99.90;;;16.45;100.00;96819.31;5006729;28;20033;-38
2023/07/29 00:56:56;;;;;;;4.05;1.60;;;16.70;99.90;;;16.45;100.00;96820.16;5006482;28;21601;-38
2023/07/29 00:59:22;;;;;;;1.63;1.27;;;16.70;99.90;;;16.44;100.00;96821.13;5012295;28;20045;-38
2023/07/29 01:01:48;;;;;;;1.67;1.30;;;16.70;99.90;;;16.47;100.00;96820.06;5006872;28;20048;-38
2023/07/29 01:04:14;;;;;;;1.95;1.27;;;16.70;99.90;;;16.48;100.00;96822.63;5007008;28;20386;-39
2023/07/29 01:07:01;;;;;;;1.88;1.35;;;16.70;99.90;;;16.49;100.00;96813.69;5005710;28;20111;-38
2023/07/29 01:10:15;;;;;;;1.50;1.23;;;16.70;99.90;;;16.49;100.00;96808.38;5008820;28;20244;-38
2023/07/29 01:13:17;;;;;;;2.10;1.40;;;16.70;99.90;;;16.48;100.00;96804.00;5008310;28;20079;-38
2023/07/29 01:16:39;;;;;;;2.47;1.30;;;16.70;99.90;;;16.49;100.00;96802.16;5007353;28;20621;-40
2023/07/29 01:19:09;;;;;;;1.35;1.05;;;16.70;99.90;;;16.45;100.00;96798.03;4995484;28;20073;-38
2023/07/29 01:21:36;;;;;;;1.77;1.30;;;16.70;99.90;;;16.52;100.00;96809.94;5008825;28;20138;-38
2023/07/29 01:24:02;;;;;;;1.33;1.20;;;16.80;99.90;;;16.52;100.00;96808.13;5000155;28;20440;-39
2023/07/29 01:26:29;;;;;;;4.13;1.27;;;16.80;99.90;;;16.53;100.00;96815.16;5007156;28;21320;-38
2023/07/29 01:28:56;;;;;;;1.65;1.20;;;16.80;99.90;;;16.52;100.00;96805.47;5015056;28;20037;-39
2023/07/29 01:31:31;;;;;;;3.38;1.42;;;16.80;99.90;;;16.56;100.00;96796.31;5011033;28;20026;-38
2023/07/29 01:34:35;;;;;;;1.83;1.30;;;16.80;99.90;;;16.57;100.00;96806.00;5006392;28;20739;-38
2023/07/29 01:37:05;;;;;;;4.25;1.02;;;16.80;99.90;;;16.57;100.00;96806.00;5009757;28;20049;-39
2023/07/29 01:39:35;;;;;;;1.10;1.00;;;16.80;99.90;;;16.58;100.00;96805.06;5025062;28;20029;-39
2023/07/29 01:42:01;;;;;;;1.35;1.10;;;16.80;99.90;;;16.58;100.00;96794.41;5009837;28;20615;-39
2023/07/29 01:44:27;;;;;;;1.58;1.27;;;16.80;99.90;;;16.63;100.00;96809.19;5014163;28;20052;-38
2023/07/29 01:46:57;;;;;;;1.42;1.10;;;16.90;99.90;;;16.65;100.00;96801.94;5008656;28;20026;-39
2023/07/29 01:49:22;;;;;;;1.20;1.10;;;16.90;99.90;;;16.56;100.00;96784.81;5007937;28;20119;-38
2023/07/29 01:51:48;;;;;;;1.30;1.20;;;16.90;99.90;;;16.68;100.00;96805.25;5006294;28;20128;-41
2023/07/29 01:54:14;;;;;;;1.65;1.33;;;16.90;99.90;;;16.69;100.00;96798.09;5021429;28;20044;-38
2023/07/29 01:56:39;;;;;;;1.98;1.27;;;17.00;99.90;;;16.72;100.00;96797.88;5011592;28;20449;-39
2023/07/29 01:59:05;;;;;;;1.30;1.15;;;17.00;99.90;;;16.71;100.00;96788.22;5011247;28;20059;-38
2023/07/29 02:01:31;;;;;;;2.30;1.30;;;17.00;99.90;;;16.69;100.00;96782.13;5014531;28;20036;-38
2023/07/29 02:03:56;;;;;;;2.25;1.30;;;16.90;99.90;;;16.67;100.00;96776.06;4998036;28;20025;-39
2023/07/29 02:06:22;;;;;;;1.60;1.30;;;16.90;99.90;;;16.66;100.00;96785.03;5006798;28;20662;-40
2023/07/29 02:08:48;;;;;;;2.28;1.35;;;16.90;99.90;;;16.62;100.00;96776.41;5005296;28;20120;-39
2023/07/29 02:11:14;;;;;;;2.08;1.20;;;16.90;99.90;;;16.60;100.00;96775.66;5013242;28;20043;-39
2023/07/29 02:13:39;;;;;;;2.35;1.40;;;16.80;99.90;;;16.55;100.00;96775.13;5013393;28;20044;-39
2023/07/29 02:16:05;;;;;;;1.80;1.30;;;16.80;99.90;;;16.44;100.00;96759.94;4999899;28;20029;-39
2023/07/29 02:18:31;;;;;;;2.03;1.55;;;16.80;99.90;;;16.45;100.00;96769.59;5009783;28;20044;-39
2023/07/29 02:20:56;;;;;;;1.40;1.08;;;16.70;99.90;;;16.40;100.00;96769.94;5010234;28;20498;-39
2023/07/29 02:23:22;;;;;;;1.75;1.10;;;16.60;99.90;;;16.34;100.00;96765.03;5007132;28;20044;-39
2023/07/29 02:25:48;;;;;;;2.45;1.30;;;16.60;99.90;;;16.28;100.00;96765.47;5009698;28;20033;-39
2023/07/29 02:28:14;;;;;;;1.48;1.08;;;16.50;99.90;;;16.22;100.00;96764.09;5008613;28;20033;-40
2023/07/29 02:30:44;;;;;;;2.85;1.45;;;16.50;99.90;;;16.04;100.00;96741.41;5009101;28;20464;-39
2023/07/29 02:33:10;;;;;;;2.20;1.33;;;16.40;99.90;;;16.17;100.00;96768.03;5012209;28;20037;-40
2023/07/29 02:35:35;;;;;;;1.05;1.00;;;16.40;99.90;;;16.17;100.00;96771.53;4985424;28;20041;-39
2023/07/29 02:38:01;;;;;;;1.35;1.25;;;16.40;99.90;;;16.15;100.00;96775.25;5008131;28;20042;-39
2023/07/29 02:40:29;;;;;;;1.95;1.40;;;16.40;99.90;;;16.15;100.00;96770.81;5003665;28;20053;-39
2023/07/29 02:42:54;;;;;;;1.40;1.25;;;16.40;99.90;;;16.18;100.00;96764.41;5006495;28;20033;-40
2023/07/29 02:45:20;;;;;;;2.03;1.48;;;16.40;99.90;;;16.15;100.00;96754.84;5005554;28;20558;-39
2023/07/29 02:47:46;;;;;;;2.00;1.52;;;16.40;99.90;;;16.20;100.00;96759.81;5013076;28;20037;-39
2023/07/29 02:50:12;;;;;;;2.13;1.50;;;16.50;99.90;;;16.09;100.00;96731.31;5002849;28;20303;-39
2023/07/29 02:52:38;;;;;;;1.52;1.38;;;16.50;99.90;;;16.27;100.00;96765.56;5010691;28;20029;-39
2023/07/29 02:55:04;;;;;;;1.25;1.15;;;16.50;99.90;;;16.30;100.00;96762.72;5003974;28;20061;-40
2023/07/29 02:57:30;;;;;;;1.63;1.45;;;16.50;99.90;;;16.31;100.00;96764.41;5007566;28;20385;-39
2023/07/29 02:59:56;;;;;;;1.40;1.30;;;16.60;99.90;;;16.32;100.00;96761.63;5007822;28;20053;-39
2023/07/29 03:02:22;;;;;;;1.73;1.40;;;16.60;99.90;;;16.33;100.00;96760.69;5007127;28;20127;-39
2023/07/29 03:04:48;;;;;;;2.67;1.30;;;16.60;99.90;;;16.34;100.00;96756.22;5003486;28;20026;-39
2023/07/29 03:07:14;;;;;;;2.13;1.23;;;16.60;99.90;;;16.34;100.00;96750.88;5012919;28;20079;-40
2023/07/29 03:09:41;;;;;;;1.20;1.10;;;16.60;99.90;;;16.32;100.00;96747.47;5012404;28;20584;-40
2023/07/29 03:12:08;;;;;;;2.03;1.42;;;16.60;99.90;;;16.23;100.00;96739.19;5006919;28;20041;-40
2023/07/29 03:14:34;;;;;;;2.55;1.50;;;16.60;99.90;;;16.28;100.00;96738.88;5003434;28;20083;-40
2023/07/29 03:17:04;;;;;;;2.15;1.50;;;16.50;99.90;;;16.25;100.00;96743.56;5000494;28;20152;-39
2023/07/29 03:19:30;;;;;;;1.85;1.50;;;16.50;99.90;;;16.25;100.00;96746.22;5007516;28;20107;-39
2023/07/29 03:21:55;;;;;;;2.00;1.63;;;16.50;99.90;;;16.23;100.00;96733.03;5003324;28;20729;-40
2023/07/29 03:24:21;;;;;;;3.28;1.63;;;16.50;99.90;;;16.25;100.00;96733.75;5002339;28;20036;-40
2023/07/29 03:26:47;;;;;;;2.38;1.58;;;16.50;99.90;;;16.25;100.00;96731.09;5007178;28;20123;-39
2023/07/29 03:29:12;;;;;;;3.47;1.52;;;16.50;99.90;;;16.26;100.00;96731.94;5003642;28;20668;-39
2023/07/29 03:31:38;;;;;;;2.20;1.38;;;16.50;99.90;;;16.27;100.00;96728.34;5010654;28;20033;-39
2023/07/29 03:34:04;;;;;;;1.52;1.25;;;16.50;99.90;;;16.28;100.00;96730.06;5006126;28;20407;-39
2023/07/29 03:36:29;;;;;;;2.85;1.52;;;16.50;99.90;;;16.29;100.00;96735.22;5008108;28;20036;-39
2023/07/29 03:38:55;;;;;;;1.83;1.25;;;16.60;99.90;;;16.25;100.00;96720.44;5004237;28;20080;-39
2023/07/29 03:41:21;;;;;;;1.50;1.30;;;16.60;99.90;;;16.34;100.00;96725.13;5011185;28;20029;-39
2023/07/29 03:43:46;;;;;;;2.83;1.60;;;16.60;99.90;;;16.37;100.00;96724.91;5004146;28;20037;-39
2023/07/29 03:46:13;;;;;;;2.33;1.67;;;16.70;99.90;;;16.39;100.00;96722.97;5006411;28;20036;-40
2023/07/29 03:48:39;;;;;;;1.45;1.17;;;16.70;99.90;;;16.43;100.00;96731.59;5007718;28;20037;-39
2023/07/29 03:51:04;;;;;;;1.60;1.40;;;16.70;99.90;;;16.45;100.00;96723.50;5006422;28;20036;-39
2023/07/29 03:53:30;;;;;;;2.08;1.35;;;16.70;99.90;;;16.48;100.00;96734.78;4999551;28;20091;-42
2023/07/29 03:55:56;;;;;;;3.30;1.60;;;16.70;99.90;;;16.51;100.00;96734.59;5009223;28;20041;-39
2023/07/29 03:58:21;;;;;;;1.42;1.33;;;16.80;99.90;;;16.46;100.00;96725.22;5004761;28;20060;-39
2023/07/29 04:00:47;;;;;;;2.35;1.95;;;16.80;99.90;;;16.54;100.00;96745.00;5005221;28;20026;-39
2023/07/29 04:03:13;;;;;;;3.50;1.80;;;16.80;99.90;;;16.52;100.00;96741.59;5001626;28;20038;-40
2023/07/29 04:05:39;;;;;;;3.25;1.95;;;16.90;99.90;;;16.58;100.00;96735.84;5002896;28;20248;-39
2023/07/29 04:08:05;;;;;;;1.98;1.65;;;16.90;99.90;;;16.51;100.00;96720.41;5007354;28;20041;-39
2023/07/29 04:10:31;;;;;;;3.83;2.17;;;16.90;99.90;;;16.57;100.00;96722.63;5006249;28;20041;-38
2023/07/29 04:12:57;;;;;;;3.65;2.00;;;16.90;99.90;;;16.56;100.00;96729.78;5005938;28;20041;-40
2023/07/29 04:15:23;;;;;;;3.60;2.10;;;16.80;99.90;;;16.56;100.00;96727.13;5011065;28;20041;-38
2023/07/29 04:17:48;;;;;;;1.95;1.70;;;16.90;99.90;;;16.56;100.00;96729.78;5013171;28;20029;-38
2023/07/29 04:20:14;;;;;;;1.75;1.55;;;16.90;99.90;;;16.56;100.00;96729.78;5008769;28;20152;-39
2023/07/29 04:22:40;;;;;;;2.20;1.50;;;16.90;99.90;;;16.59;100.00;96726.88;5011063;28;20198;-39
2023/07/29 04:25:06;;;;;;;1.95;1.50;;;16.90;99.90;;;16.61;100.00;96735.59;5006463;28;20401;-40
2023/07/29 04:27:32;;;;;;;1.88;1.50;;;16.90;99.90;;;16.63;100.00;96738.16;5010844;28;20028;-41
2023/07/29 04:29:57;;;;;;;2.33;1.45;;;16.90;99.90;;;16.47;100.00;96710.94;5010213;28;20021;-38
2023/07/29 04:32:23;;;;;;;4.15;1.70;;;16.90;99.90;;;16.64;100.00;96745.19;5007799;28;20029;-40
2023/07/29 04:34:49;;;;;;;1.95;1.50;;;16.90;99.90;;;16.66;100.00;96742.44;5015385;28;20486;-39
2023/07/29 04:37:15;;;;;;;2.05;1.67;;;16.90;99.90;;;16.65;100.00;96746.88;5015804;28;20516;-40
2023/07/29 04:39:40;;;;;;;2.42;1.55;;;16.90;99.90;;;16.65;100.00;96754.03;5014811;28;20044;-39
2023/07/29 04:42:06;;;;;;;5.18;1.80;;;16.90;99.90;;;16.65;100.00;96751.34;5006468;28;20092;-39
2023/07/29 04:44:32;;;;;;;3.78;1.90;;;16.90;99.90;;;16.63;100.00;96754.13;5008656;28;20029;-40
2023/07/29 04:46:57;;;;;;;2.83;1.90;;;16.90;99.90;;;16.65;100.00;96770.00;5010850;28;20022;-39
2023/07/29 04:49:23;;;;;;;4.85;2.10;;;16.90;99.90;;;16.61;100.00;96759.56;5012644;28;20051;-39
2023/07/29 04:51:49;;;;;;;3.03;1.88;;;16.90;99.90;;;16.60;100.00;96765.03;5013337;28;20061;-41
2023/07/29 04:54:14;;;;;;;4.97;2.00;;;16.90;99.90;;;16.32;100.00;96723.53;5016149;28;20037;-40
2023/07/29 04:56:40;;;;;;;4.10;1.95;;;16.90;99.90;;;16.57;100.00;96784.69;5007102;28;20034;-40
2023/07/29 04:59:08;;;;;;;2.97;1.90;;;16.90;99.90;;;16.58;100.00;96773.09;5007725;28;20052;-41
2023/07/29 05:01:33;;;;;;;2.30;1.90;;;16.80;99.90;;;16.57;100.00;96766.06;5016623;28;20033;-41
2023/07/29 05:03:59;;;;;;;2.58;1.80;;;16.80;99.90;;;16.57;100.00;96757.25;5015881;28;20025;-41
2023/07/29 05:06:25;;;;;;;4.90;2.00;;;16.80;99.90;;;16.60;100.00;96759.69;5007731;28;20050;-40
2023/07/29 05:08:50;;;;;;;3.05;1.80;;;16.90;99.90;;;16.64;100.00;96757.66;5016871;28;20037;-39
2023/07/29 05:11:16;;;;;;;4.30;1.70;;;16.90;99.90;;;16.63;100.00;96745.31;5014292;28;21113;-40
2023/07/29 05:13:43;;;;;;;4.97;2.22;;;16.90;99.90;;;16.70;100.00;96738.56;5012965;28;20030;-40
2023/07/29 05:16:09;;;;;;;8.82;2.35;;;17.00;99.90;;;16.74;100.00;96732.06;5009456;28;20481;-40
2023/07/29 05:18:35;;;;;;;3.63;2.30;;;17.00;99.90;;;16.72;100.00;96718.00;5015127;28;20037;-40
2023/07/29 05:21:00;;;;;;;2.40;2.20;;;17.10;99.90;;;16.92;100.00;96730.78;5007827;28;20052;-39
2023/07/29 05:23:26;;;;;;;4.20;2.05;;;17.20;99.90;;;17.02;100.00;96728.28;5009174;28;20055;-41
2023/07/29 05:25:52;;;;;;;2.38;1.90;;;17.30;99.90;;;17.11;100.00;96726.75;5010888;28;20208;-37
2023/07/29 05:28:17;;;;;;;2.42;1.88;;;17.30;99.90;;;17.20;100.00;96739.38;5002172;28;20389;-38
2023/07/29 05:30:44;;;;;;;2.65;1.90;;;17.40;99.90;;;17.25;100.00;96749.72;5008951;28;20042;-36
2023/07/29 05:33:09;;;;;;;3.47;2.50;;;17.50;99.90;;;17.27;100.00;96743.28;5010347;28;20950;-36
2023/07/29 05:35:35;;;;;;;4.53;1.80;;;17.50;99.90;;;17.31;100.00;96742.09;5009793;28;20087;-36
2023/07/29 05:38:03;;;;;;;3.60;2.17;;;17.50;99.90;;;17.36;100.00;96739.94;5013178;28;20040;-38
2023/07/29 05:40:28;;;;;;;7.13;2.40;;;17.60;99.90;;;17.34;100.00;96743.69;5019132;28;20040;-38
2023/07/29 05:42:54;;;;;;;2.72;2.13;;;17.60;99.90;;;17.35;100.00;96748.91;5010627;28;20033;-38
2023/07/29 05:45:20;;;;;;;2.63;1.95;;;17.60;99.90;;;17.39;100.00;96738.00;5007714;28;20044;-38
2023/07/29 05:47:45;;;;;;;2.42;2.22;;;17.60;99.90;;;17.43;100.00;96735.00;5008511;28;20040;-39
2023/07/29 05:50:11;;;;;;;2.17;1.75;;;17.70;99.90;;;17.55;100.00;96744.75;5000853;28;20128;-38
2023/07/29 05:52:37;;;;;;;4.15;1.88;;;17.80;99.90;;;17.66;100.00;96738.59;5006271;28;20037;-39
2023/07/29 05:55:03;;;;;;;2.63;2.08;;;17.90;99.90;;;17.81;100.00;96733.06;5015023;28;20053;-38
2023/07/29 05:57:29;;;;;;;5.72;2.20;;;18.10;99.90;;;17.91;100.00;96732.25;5010703;28;20021;-37
2023/07/29 05:59:54;;;;;;;3.53;2.28;;;18.20;99.90;;;18.00;100.00;96727.16;5007261;28;20037;-38
2023/07/29 06:02:20;;;;;;;4.13;2.20;;;18.30;99.90;;;18.17;100.00;96721.38;5007030;28;20108;-38
2023/07/29 06:04:46;;;;;;;5.70;2.08;;;18.50;99.90;;;18.35;100.00;96716.41;5010629;28;20172;-38
2023/07/29 06:07:11;;;;;;;3.72;1.90;;;18.60;99.90;;;18.58;100.00;96719.91;5011965;28;20033;-37
2023/07/29 06:09:37;;;;;;;3.50;1.60;;;18.80;99.90;;;18.79;100.00;96725.34;5014997;28;20041;-38
2023/07/29 06:12:03;;;;;;;4.75;1.90;;;19.00;99.90;;;18.96;100.00;96718.66;5014555;28;20037;-38
2023/07/29 06:14:30;;;;;;;2.15;1.70;;;19.20;99.90;;;19.04;100.00;96720.69;5014801;28;20053;-38
2023/07/29 06:16:56;;;;;;;3.50;2.10;;;19.30;99.90;;;19.15;100.00;96730.50;5013603;28;20378;-38
2023/07/29 06:19:21;;;;;;;1.77;1.50;;;19.40;99.90;;;19.24;100.00;96727.94;5009637;28;20087;-37
2023/07/29 06:21:48;;;;;;;1.67;1.50;;;19.50;99.90;;;19.40;100.00;96730.19;5011786;28;20029;-38
2023/07/29 06:24:13;;;;;;;3.95;2.00;;;19.60;99.90;;;19.48;100.00;96739.38;5011500;28;20033;-37
2023/07/29 06:26:39;;;;;;;2.45;1.77;;;19.70;99.90;;;19.55;100.00;96735.22;5015652;28;20037;-38
2023/07/29 06:29:05;;;;;;;5.50;2.28;;;19.80;99.90;;;19.59;100.00;96731.31;5011052;28;21267;-37
2023/07/29 06:31:32;;;;;;;2.03;1.52;;;19.90;99.90;;;19.57;100.00;96727.91;5010681;28;20125;-38
2023/07/29 06:33:58;;;;;;;1.80;1.52;;;19.90;99.90;;;19.65;100.00;96744.19;5008965;28;20108;-38
2023/07/29 06:36:24;;;;;;;2.90;1.60;;;20.00;99.90;;;19.65;100.00;96742.34;5012441;28;20453;-38
2023/07/29 06:38:49;;;;;;;1.70;1.52;;;19.90;99.90;;;19.60;100.00;96747.22;5012754;28;20049;-39
2023/07/29 06:41:16;;;;;;;2.22;1.58;;;19.90;99.90;;;19.44;100.00;96750.31;5013029;28;20080;-38
2023/07/29 06:43:42;;;;;;;3.25;1.63;;;19.70;99.90;;;19.29;100.00;96750.75;5015093;28;20025;-39
2023/07/29 06:46:07;;;;;;;3.35;1.48;;;19.60;99.90;;;19.21;100.00;96760.25;5006289;28;20033;-39
2023/07/29 06:48:33;;;;;;;1.65;1.40;;;19.50;99.90;;;19.21;100.00;96756.72;5002540;28;20502;-38
2023/07/29 06:51:00;;;;;;;3.03;1.35;;;19.50;99.90;;;19.16;100.00;96746.41;5012803;28;20102;-38
2023/07/29 06:53:27;;;;;;;3.08;1.77;;;19.50;99.90;;;19.11;100.00;96761.13;5010907;28;20191;-40
2023/07/29 06:55:52;;;;;;;2.20;1.23;;;19.40;99.90;;;19.03;100.00;96757.25;5015167;28;20122;-39
2023/07/29 06:58:19;;;;;;;2.55;1.40;;;19.30;99.90;;;18.91;100.00;96762.75;5014413;28;20131;-38
2023/07/29 07:00:44;;;;;;;2.10;1.50;;;19.20;99.90;;;18.79;100.00;96770.75;5010857;28;20044;-39
2023/07/29 07:03:10;;;;;;;2.17;1.50;;;19.10;99.90;;;18.71;100.00;96778.53;5007859;28;20030;-39
2023/07/29 07:05:36;;;;;;;4.95;1.75;;;19.00;99.90;;;18.61;100.00;96782.88;5012509;28;20029;-38
2023/07/29 07:08:02;;;;;;;1.90;1.50;;;18.90;99.90;;;18.51;100.00;96794.28;5018392;28;20038;-38
2023/07/29 07:10:27;;;;;;;2.22;1.60;;;18.80;99.90;;;18.43;100.00;96793.19;5015007;28;20195;-38
2023/07/29 07:12:53;;;;;;;6.38;1.80;;;18.70;99.90;;;18.33;100.00;96786.91;5007564;28;20733;-39
2023/07/29 07:15:19;;;;;;;2.55;1.65;;;18.60;99.90;;;18.24;100.00;96783.13;5005721;28;20037;-38
2023/07/29 07:17:44;;;;;;;3.70;1.45;;;18.50;99.90;;;18.20;100.00;96790.53;5011942;28;20037;-39
2023/07/29 07:20:11;;;;;;;3.58;1.52;;;18.50;99.90;;;18.23;100.00;96792.97;5013285;28;20604;-39
2023/07/29 07:22:37;;;;;;;2.30;1.35;;;18.50;99.90;;;18.26;100.00;96795.38;5010996;28;20033;-39
2023/07/29 07:25:03;;;;;;;1.75;1.25;;;18.50;99.90;;;18.27;100.00;96788.22;5008733;28;20368;-38
2023/07/29 07:27:28;;;;;;;1.33;1.13;;;18.60;99.90;;;18.34;100.00;96793.91;5015515;28;20029;-38
2023/07/29 07:29:54;;;;;;;3.65;1.40;;;18.60;99.90;;;18.38;100.00;96792.75;4999415;28;20456;-38
2023/07/29 07:32:20;;;;;;;3.55;1.30;;;18.70;99.90;;;18.46;100.00;96796.47;5013624;28;20029;-38
2023/07/29 07:34:45;;;;;;;2.15;1.50;;;18.80;99.90;;;18.60;100.00;96797.22;5016621;28;20037;-38
2023/07/29 07:37:11;;;;;;;2.63;1.42;;;18.90;99.90;;;18.71;100.00;96781.19;5010738;28;20030;-39
2023/07/29 07:39:37;;;;;;;2.63;1.30;;;19.10;99.90;;;18.92;100.00;96791.19;5008891;28;20548;-38
2023/07/29 07:42:03;;;;;;;3.03;1.27;;;19.20;99.90;;;19.03;100.00;96789.31;5017728;28;20030;-38
2023/07/29 07:44:29;;;;;;;1.80;1.20;;;19.40;99.90;;;19.17;100.00;96788.22;5016240;28;20038;-38
2023/07/29 07:46:54;;;;;;;2.13;1.10;;;19.50;99.90;;;19.32;100.00;96778.06;5000279;28;20034;-38
2023/07/29 07:49:20;;;;;;;1.95;1.20;;;19.60;99.90;;;19.49;100.00;96791.88;5008760;28;20056;-39
2023/07/29 07:51:45;;;;;;;1.52;0.80;;;19.80;99.90;;;19.55;100.00;96788.72;5000440;28;20061;-38
2023/07/29 07:54:11;;;;;;;4.00;1.30;;;19.80;99.90;;;19.49;100.00;96791.88;5004392;28;20088;-39
2023/07/29 07:56:37;;;;;;;1.70;0.90;;;19.80;99.90;;;19.52;100.00;96791.63;5006849;28;20762;-38
2023/07/29 07:59:03;;;;;;;2.33;1.30;;;19.80;99.90;;;19.43;100.00;96796.78;5015241;28;20041;-40
2023/07/29 08:01:36;;;;;;;1.92;1.15;;;19.70;99.90;;;19.36;100.00;96774.19;5005414;28;20136;-38
2023/07/29 08:04:02;;;;;;;1.13;0.98;;;19.60;99.90;;;19.42;100.00;96784.38;5005179;28;20028;-38
2023/07/29 08:06:27;;;;;;;1.77;1.20;;;19.70;99.90;;;19.49;100.00;96773.16;5016499;28;20128;-38
2023/07/29 08:08:53;;;;;;;1.23;0.90;;;19.80;99.90;;;19.68;100.00;96789.38;5010351;28;20042;-40
2023/07/29 08:11:19;;;;;;;1.65;1.20;;;19.90;99.90;;;19.72;100.00;96798.00;5007983;28;20022;-39
2023/07/29 08:13:44;;;;;;;1.35;1.00;;;20.00;99.90;;;19.82;100.00;96801.63;5010413;28;20049;-38
2023/07/29 08:16:12;;;;;;;1.80;1.20;;;20.10;99.90;;;20.00;100.00;96810.78;5009254;28;20493;-39
2023/07/29 08:18:38;;;;;;;2.75;1.45;;;20.30;99.90;;;20.20;100.00;96813.59;5020374;28;20425;-38
2023/07/29 08:21:03;;;;;;;1.50;1.00;;;20.50;99.90;;;20.44;100.00;96817.81;5014569;28;20034;-38
2023/07/29 08:23:31;;;;;;;1.55;1.20;;;20.70;99.90;;;20.61;100.00;96822.59;5013746;28;21216;-38
2023/07/29 08:26:02;;;;;;;2.08;1.00;;;20.90;99.90;;;20.64;100.00;96819.66;5015625;28;20769;-41
2023/07/29 08:28:37;;;;;;;3.00;1.30;;;21.00;99.90;;;20.58;100.00;96806.75;5011183;28;20033;-39
2023/07/29 08:31:03;;;;;;;1.73;1.02;;;21.00;99.90;;;20.75;100.00;96822.25;5013285;28;20072;-39
2023/07/29 08:33:30;;;;;;;1.83;0.98;;;21.00;99.90;;;20.75;100.00;96819.56;5007426;28;20037;-39
2023/07/29 08:35:57;;;;;;;1.88;1.05;;;21.10;99.90;;;20.83;100.00;96821.56;5017930;28;20117;-39
2023/07/29 08:38:22;;;;;;;1.15;1.00;;;21.10;99.90;;;20.95;100.00;96808.94;5008938;28;20041;-38
2023/07/29 08:41:19;;;;;;;1.17;0.90;;;21.20;99.90;;;21.10;100.00;96814.75;5016039;28;20037;-39
2023/07/29 08:44:07;;;;;;;2.50;1.20;;;21.40;99.90;;;21.15;100.00;96802.63;5006822;28;20097;-38
2023/07/29 08:46:33;;;;;;;3.40;0.90;;;21.40;99.90;;;21.33;100.00;96813.53;5008981;28;20040;-38
2023/07/29 08:49:01;;;;;;;1.00;0.90;;;21.50;99.90;;;21.49;100.00;96821.09;5011237;28;20033;-39
2023/07/29 08:51:27;;;;;;;1.15;0.90;;;21.70;99.90;;;21.59;100.00;96818.44;5001089;28;20032;-39
2023/07/29 08:53:53;;;;;;;1.30;1.20;;;21.90;99.90;;;21.84;100.00;96819.72;5005461;28;20055;-38
2023/07/29 08:56:19;;;;;;;2.10;1.02;;;22.10;99.90;;;22.01;100.00;96814.63;5006483;28;20405;-38
2023/07/29 08:58:46;;;;;;;1.38;1.02;;;22.30;99.90;;;22.26;100.00;96822.09;5003732;28;20056;-39
2023/07/29 09:01:12;;;;;;;3.40;1.30;;;22.50;99.90;;;22.50;100.00;96823.47;5019207;28;20508;-38
2023/07/29 09:03:37;;;;;;;1.40;1.00;;;22.80;99.90;;;22.81;100.00;96831.31;5001919;28;20116;-39
2023/07/29 09:06:04;;;;;;;1.27;0.93;;;23.00;99.90;;;23.10;100.00;96816.94;5014401;28;20030;-38
2023/07/29 09:08:29;;;;;;;1.90;1.02;;;23.40;99.90;;;23.25;100.00;96815.41;5011538;28;20083;-38
2023/07/29 09:10:55;;;;;;;2.65;1.10;;;23.60;99.90;;;23.29;100.00;96808.72;5013704;28;20037;-39
2023/07/29 09:13:21;;;;;;;2.20;1.10;;;23.60;99.90;;;23.48;100.00;96810.47;5005294;28;20494;-38
2023/07/29 09:15:47;;;;;;;1.42;1.17;;;23.80;99.90;;;23.44;100.00;96815.31;5005911;28;20443;-38
2023/07/29 09:18:19;;;;;;;1.40;0.90;;;23.90;99.90;;;23.44;100.00;96806.41;5010401;28;20106;-38
2023/07/29 09:20:50;;;;;;;2.50;1.08;;;23.80;99.90;;;23.34;100.00;96800.22;5017435;28;20526;-38
2023/07/29 09:23:15;;;;;;;0.85;0.82;;;23.70;99.90;;;23.29;100.00;96799.81;5015481;28;20490;-39
2023/07/29 09:25:42;;;;;;;1.77;0.98;;;23.60;99.90;;;23.23;100.00;96812.03;5017131;28;20094;-38
2023/07/29 09:28:13;;;;;;;7.30;1.30;;;23.50;99.90;;;23.10;100.00;96798.09;5005096;28;20033;-38
2023/07/29 09:30:42;;;;;;;1.92;1.00;;;23.50;99.90;;;23.24;100.00;96805.69;5016970;28;20030;-38
2023/07/29 09:33:09;;;;;;;1.95;1.33;;;23.50;99.90;;;23.34;100.00;96803.75;5019193;28;20022;-39
2023/07/29 09:35:37;;;;;;;1.67;1.02;;;23.60;99.90;;;23.58;100.00;96807.69;5018085;28;20059;-38
2023/07/29 09:38:05;;;;;;;1.67;1.25;;;23.80;99.90;;;23.80;100.00;96795.69;5020168;28;20501;-39
2023/07/29 09:40:41;;;;;;;1.45;1.10;;;24.10;99.90;;;23.91;100.00;96794.59;5013627;28;20033;-39
2023/07/29 09:43:10;;;;;;;2.53;1.23;;;24.30;99.90;;;23.87;100.00;96801.28;5015814;28;20394;-38
2023/07/29 09:45:37;;;;;;;2.58;1.33;;;24.30;99.90;;;23.98;100.00;96812.66;5007329;28;20031;-39
2023/07/29 09:48:09;;;;;;;2.30;1.38;;;24.30;99.90;;;23.90;100.00;96822.53;5005291;28;20037;-39
2023/07/29 09:50:35;;;;;;;1.37;1.27;;;24.30;99.90;;;23.76;100.00;96802.31;5012021;28;20036;-38
2023/07/29 09:53:03;;;;;;;2.28;1.27;;;24.10;99.90;;;23.99;100.00;96795.53;5018446;28;20037;-39
2023/07/29 09:55:29;;;;;;;1.77;1.40;;;24.30;99.90;;;24.24;100.00;96811.84;5017567;28;20064;-38
2023/07/29 09:58:02;;;;;;;1.45;1.15;;;24.50;99.90;;;24.25;100.00;96799.25;5022231;28;20129;-38
2023/07/29 10:00:31;;;;;;;1.77;1.17;;;24.60;99.90;;;24.28;100.00;96807.00;5010541;28;20052;-39
2023/07/29 10:02:59;;;;;;;1.70;1.20;;;24.60;99.90;;;24.49;100.00;96798.56;5011264;28;20021;-38
2023/07/29 10:05:28;;;;;;;3.25;1.30;;;24.80;99.90;;;24.57;100.00;96799.50;5003441;28;20083;-38
2023/07/29 10:07:55;;;;;;;2.35;1.35;;;24.90;99.90;;;24.72;100.00;96786.25;5013571;28;20059;-38
2023/07/29 10:10:22;;;;;;;1.60;1.30;;;25.10;99.90;;;25.06;100.00;96784.59;5014899;28;20404;-39
2023/07/29 10:12:47;;;;;;;2.10;1.38;;;25.30;99.90;;;25.25;100.00;96787.03;5016396;28;20033;-38